Terminal Aerodrome Forecast
Issued by NWS Sterling, VA

Current Version | Previous Version | Graphics & Text | Print | Product List | Glossary On
Versions: 1 2 3 4 5 6 7 8 9 10 11 12 13
543
FTUS41 KLWX 241728
TAFMRB
TAF
KMRB 241728Z 2418/2518 16008KT P6SM SKC
     FM250400 18006KT P6SM BKN030
     FM250800 17006KT P6SM BKN015
     FM250900 17006KT P6SM BKN008
     FM251100 17006KT P6SM BKN015
     FM251500 18010G17KT 1 1/2SM SHRA VCTS OVC015CB
     FM251700 23011G19KT 6SM -SHRA OVC050=

USA.gov is the U.S. government's official web portal to all federal, state and local government web resources and services.